Time;durP1;ratioP1;P1;durP2;ratioP2;P2;SDS_P1;SDS_P2;PMS_P1;PMS_P2;Temp;Humidity;BMP_temperature;BMP_pressure;BME280_temperature;BME280_humidity;BME280_pressure;Samples;Min_cycle;Max_cycle;Signal;HPM_P1;HPM_P2
2023/10/25 00:00:32;;;;;;;5.40;4.37;;;12.80;99.90;12.80;99188.00;;;;4894355;28;88398;-65
2023/10/25 00:02:57;;;;;;;6.77;4.40;;;12.80;99.90;12.80;99185.00;;;;4893609;28;87917;-64
2023/10/25 00:05:23;;;;;;;4.97;4.30;;;12.80;99.90;12.80;99181.00;;;;4894175;28;111758;-65
2023/10/25 00:07:48;;;;;;;6.93;5.30;;;12.80;99.90;12.80;99191.00;;;;4894587;28;108765;-66
2023/10/25 00:10:14;;;;;;;6.70;5.03;;;12.80;99.90;12.80;99188.00;;;;4891870;28;118329;-64
2023/10/25 00:12:40;;;;;;;6.63;5.30;;;12.80;99.90;12.70;99186.00;;;;4891289;28;117341;-65
2023/10/25 00:15:06;;;;;;;6.17;4.70;;;12.80;99.90;12.70;99185.00;;;;4890597;28;105889;-63
2023/10/25 00:17:32;;;;;;;9.13;6.73;;;12.70;99.90;12.70;99179.00;;;;4889612;28;101264;-64
2023/10/25 00:19:58;;;;;;;7.10;5.30;;;12.70;99.90;12.70;99180.00;;;;4892111;28;118685;-64
2023/10/25 00:22:23;;;;;;;8.07;6.37;;;12.70;99.90;12.60;99177.00;;;;4890794;28;116989;-64
2023/10/25 00:24:49;;;;;;;7.17;4.73;;;12.70;99.90;12.60;99176.00;;;;4893004;28;109662;-63
2023/10/25 00:27:15;;;;;;;7.17;4.83;;;12.60;99.90;12.60;99196.00;;;;4894821;28;87853;-64
2023/10/25 00:29:40;;;;;;;6.67;5.43;;;12.60;99.90;12.50;99192.00;;;;4894213;28;103561;-65
2023/10/25 00:32:07;;;;;;;8.53;5.70;;;12.50;99.90;12.40;99195.00;;;;4895439;28;117159;-65
2023/10/25 00:34:33;;;;;;;10.13;6.33;;;12.50;99.90;12.40;99191.00;;;;4889720;28;88184;-64
2023/10/25 00:36:58;;;;;;;6.70;5.57;;;12.40;99.90;12.40;99209.00;;;;4890866;28;108077;-64
2023/10/25 00:39:24;;;;;;;7.30;5.40;;;12.40;99.90;12.30;99200.00;;;;4889040;28;117053;-65
2023/10/25 00:41:50;;;;;;;6.50;5.23;;;12.80;99.90;12.30;99204.00;;;;4891555;28;118067;-64
2023/10/25 00:44:15;;;;;;;8.37;6.60;;;12.40;99.90;12.30;99208.00;;;;4894001;28;92130;-64
2023/10/25 00:46:41;;;;;;;5.07;4.30;;;12.40;99.90;12.30;99206.00;;;;4892844;28;107431;-64
2023/10/25 00:49:08;;;;;;;9.83;6.43;;;12.40;99.90;12.30;99204.00;;;;4892936;28;88265;-64
2023/10/25 00:51:34;;;;;;;8.00;6.13;;;12.40;99.90;12.30;99207.00;;;;4892534;28;88934;-65
2023/10/25 00:54:02;;;;;;;8.37;6.20;;;12.30;99.90;12.30;99209.00;;;;4886299;28;109644;-65
2023/10/25 00:56:32;;;;;;;8.13;5.37;;;12.30;99.90;12.30;99203.00;;;;4891817;28;87664;-64
2023/10/25 00:58:58;;;;;;;6.67;4.63;;;12.30;99.90;12.30;99198.00;;;;4890246;28;89286;-64
2023/10/25 01:01:27;;;;;;;4.80;4.27;;;12.30;99.90;12.30;99201.00;;;;4892483;28;88791;-64
2023/10/25 01:03:54;;;;;;;7.87;4.67;;;12.70;99.90;12.30;99204.00;;;;4889855;28;104437;-65
2023/10/25 01:06:20;;;;;;;5.70;3.80;;;12.40;99.90;12.40;99214.00;;;;4889048;28;108729;-64
2023/10/25 01:08:46;;;;;;;8.07;5.13;;;12.40;99.90;12.40;99211.00;;;;4892347;28;119204;-65
2023/10/25 01:11:12;;;;;;;6.53;4.60;;;12.40;99.90;12.40;99215.00;;;;4878999;28;116814;-64
2023/10/25 01:13:38;;;;;;;5.43;4.37;;;12.40;99.90;12.40;99223.00;;;;4892415;28;95715;-64
2023/10/25 01:16:04;;;;;;;9.00;5.37;;;12.40;99.90;12.40;99206.00;;;;4890787;28;88092;-64
2023/10/25 01:18:30;;;;;;;5.73;3.80;;;12.40;99.90;12.40;99203.00;;;;4894893;28;119104;-64
2023/10/25 01:20:56;;;;;;;4.83;4.03;;;12.40;99.90;12.40;99202.00;;;;4890648;28;88941;-63
2023/10/25 01:23:21;;;;;;;5.30;4.57;;;12.40;99.90;12.40;99195.00;;;;4890134;28;111076;-64
2023/10/25 01:25:47;;;;;;;4.33;3.53;;;12.40;99.90;12.40;99199.00;;;;4891419;28;88207;-65
2023/10/25 01:28:13;;;;;;;4.23;3.73;;;12.50;99.90;12.40;99211.00;;;;4890742;28;117890;-64
2023/10/25 01:30:39;;;;;;;4.23;3.80;;;12.40;99.90;12.40;99211.00;;;;4889843;28;117242;-64
2023/10/25 01:33:06;;;;;;;4.43;3.53;;;12.40;99.90;12.40;99202.00;;;;4890297;28;92148;-64
2023/10/25 01:35:34;;;;;;;4.03;3.07;;;12.40;99.90;12.40;99203.00;;;;4894169;28;87371;-64
2023/10/25 01:38:00;;;;;;;6.00;3.13;;;12.40;99.90;12.40;99201.00;;;;4891684;28;90113;-64
2023/10/25 01:40:26;;;;;;;4.03;3.53;;;12.50;99.90;12.50;99206.00;;;;4891813;28;103735;-64
2023/10/25 01:42:54;;;;;;;4.67;4.03;;;12.50;99.90;12.50;99210.00;;;;4886937;28;112080;-64
2023/10/25 01:45:22;;;;;;;4.77;3.63;;;12.50;99.90;12.50;99210.00;;;;4890524;28;88161;-64
2023/10/25 01:47:47;;;;;;;4.27;3.87;;;12.50;99.90;12.50;99210.00;;;;4893152;28;89417;-64
2023/10/25 01:50:13;;;;;;;5.67;4.47;;;12.50;99.90;12.60;99211.00;;;;4892951;28;114421;-64
2023/10/25 01:52:39;;;;;;;7.37;4.33;;;12.60;99.90;12.60;99215.00;;;;4891217;28;103002;-65
2023/10/25 01:55:05;;;;;;;10.47;4.70;;;12.60;99.90;12.60;99217.00;;;;4890200;28;107612;-65
2023/10/25 01:57:31;;;;;;;6.47;4.63;;;12.60;99.90;12.60;99215.00;;;;4890298;28;109597;-64
2023/10/25 01:59:56;;;;;;;5.63;4.93;;;12.60;99.90;12.60;99222.00;;;;4892196;28;87697;-64
2023/10/25 02:02:22;;;;;;;6.40;5.23;;;12.60;99.90;12.60;99214.00;;;;4890915;28;88293;-64
2023/10/25 02:04:48;;;;;;;7.30;4.93;;;12.60;99.90;12.60;99218.00;;;;4894620;28;88879;-65
2023/10/25 02:07:14;;;;;;;6.87;4.83;;;12.60;99.90;12.60;99221.00;;;;4889617;28;118155;-65
2023/10/25 02:09:39;;;;;;;7.27;3.93;;;12.60;99.90;12.60;99213.00;;;;4892412;28;95591;-64
2023/10/25 02:12:05;;;;;;;5.53;4.80;;;12.60;99.90;12.60;99223.00;;;;4889016;28;110810;-65
2023/10/25 02:14:32;;;;;;;5.97;4.83;;;12.60;99.90;12.60;99222.00;;;;4872226;28;88045;-65
2023/10/25 02:16:57;;;;;;;8.80;5.33;;;12.70;99.90;12.70;99233.00;;;;4890825;28;88571;-65
2023/10/25 02:19:23;;;;;;;5.97;5.37;;;12.70;99.90;12.70;99227.00;;;;4890987;28;115876;-65
2023/10/25 02:21:49;;;;;;;6.40;4.57;;;12.60;99.90;12.70;99222.00;;;;4890387;28;111285;-64
2023/10/25 02:24:15;;;;;;;6.60;4.33;;;12.70;99.90;12.70;99227.00;;;;4892833;28;100065;-65
2023/10/25 02:26:42;;;;;;;6.93;5.17;;;12.70;99.90;12.70;99237.00;;;;4892613;28;88253;-64
2023/10/25 02:29:07;;;;;;;6.47;5.07;;;12.70;99.90;12.70;99237.00;;;;4889879;28;89713;-64
2023/10/25 02:31:35;;;;;;;8.97;5.20;;;12.70;99.90;12.70;99233.00;;;;4891423;28;88947;-65
2023/10/25 02:34:01;;;;;;;5.77;4.73;;;12.70;99.90;12.70;99234.00;;;;4890754;28;98599;-65
2023/10/25 02:36:26;;;;;;;4.60;4.20;;;12.70;99.90;12.70;99238.00;;;;4890331;28;118098;-65
2023/10/25 02:38:52;;;;;;;6.03;4.77;;;12.70;99.90;12.70;99236.00;;;;4890645;28;88805;-65
2023/10/25 02:41:18;;;;;;;6.43;4.20;;;12.70;99.90;12.70;99241.00;;;;4888855;28;109734;-65
2023/10/25 02:43:44;;;;;;;6.60;4.30;;;12.70;99.90;12.70;99244.00;;;;4887358;28;88112;-64
2023/10/25 02:46:11;;;;;;;12.27;6.07;;;12.70;99.90;12.70;99243.00;;;;4890282;28;88726;-65
2023/10/25 02:48:36;;;;;;;5.00;4.10;;;12.70;99.90;12.70;99251.00;;;;4891019;28;88441;-65
2023/10/25 02:51:04;;;;;;;6.50;4.43;;;12.70;99.90;12.70;99253.00;;;;4889477;28;87900;-65
2023/10/25 02:53:30;;;;;;;4.83;4.30;;;12.70;99.90;12.70;99242.00;;;;4891036;28;102861;-64
2023/10/25 02:56:00;;;;;;;8.17;4.50;;;12.70;99.90;12.70;99254.00;;;;4889407;28;89655;-65
2023/10/25 02:58:26;;;;;;;8.93;5.60;;;12.70;99.90;12.70;99257.00;;;;4892433;28;88904;-64
2023/10/25 03:00:52;;;;;;;6.37;5.20;;;12.70;99.90;12.70;99257.00;;;;4891142;28;87827;-65
2023/10/25 03:03:18;;;;;;;7.30;5.60;;;13.00;99.90;12.60;99252.00;;;;4886670;28;108014;-65
2023/10/25 03:05:43;;;;;;;5.13;4.53;;;12.70;99.90;12.60;99254.00;;;;4891440;28;117435;-64
2023/10/25 03:08:09;;;;;;;4.20;3.77;;;12.60;99.90;12.60;99256.00;;;;4889961;28;88393;-64
2023/10/25 03:10:35;;;;;;;9.83;6.20;;;12.60;99.90;12.60;99265.00;;;;4891232;28;110084;-64
2023/10/25 03:13:02;;;;;;;5.27;4.73;;;12.60;99.90;12.60;99268.00;;;;4893318;28;109151;-65
2023/10/25 03:15:28;;;;;;;7.03;4.63;;;12.60;99.90;12.60;99271.00;;;;4894638;28;88608;-66
2023/10/25 03:17:54;;;;;;;5.17;4.60;;;12.60;99.90;12.60;99270.00;;;;4890088;28;116956;-66
2023/10/25 03:20:20;;;;;;;6.17;4.87;;;12.60;99.90;12.60;99270.00;;;;4892687;28;90236;-65
2023/10/25 03:22:45;;;;;;;6.33;4.27;;;12.60;99.90;12.60;99271.00;;;;4893711;28;109879;-64
2023/10/25 03:25:11;;;;;;;4.97;4.57;;;12.60;99.90;12.60;99269.00;;;;4892735;28;116729;-64
2023/10/25 03:27:43;;;;;;;6.97;3.97;;;12.60;99.90;12.60;99272.00;;;;4890861;28;121365;-64
2023/10/25 03:30:09;;;;;;;6.27;4.27;;;12.60;99.90;12.60;99285.00;;;;4896316;28;88222;-65
2023/10/25 03:32:35;;;;;;;7.47;5.20;;;12.60;99.90;12.60;99288.00;;;;4891791;28;88055;-64
2023/10/25 03:35:00;;;;;;;7.07;5.23;;;12.50;99.90;12.60;99282.00;;;;4893499;28;88534;-63
2023/10/25 03:37:26;;;;;;;6.97;4.33;;;12.60;99.90;12.60;99277.00;;;;4893848;28;98954;-63
2023/10/25 03:39:52;;;;;;;8.73;4.53;;;12.60;99.90;12.50;99276.00;;;;4893631;28;110573;-63
2023/10/25 03:42:17;;;;;;;4.87;4.23;;;12.60;99.90;12.50;99281.00;;;;4894207;28;87937;-64
2023/10/25 03:44:43;;;;;;;6.90;5.30;;;12.50;99.90;12.50;99280.00;;;;4890365;28;120223;-64
2023/10/25 03:47:09;;;;;;;6.57;4.53;;;12.60;99.90;12.50;99283.00;;;;4892229;28;113937;-65
2023/10/25 03:49:34;;;;;;;6.50;4.70;;;12.50;99.90;12.50;99275.00;;;;4893272;28;109641;-64
2023/10/25 03:52:00;;;;;;;5.33;3.70;;;12.50;99.90;12.50;99267.00;;;;4892514;28;107227;-64
2023/10/25 03:54:26;;;;;;;5.67;5.07;;;12.50;99.90;12.50;99274.00;;;;4893680;28;117241;-64
2023/10/25 03:56:51;;;;;;;4.67;4.27;;;12.50;99.90;12.40;99270.00;;;;4853732;28;116790;-64
2023/10/25 03:59:17;;;;;;;7.37;4.53;;;12.50;99.90;12.40;99278.00;;;;4886517;28;114921;-65
2023/10/25 04:01:43;;;;;;;5.90;3.83;;;12.50;99.90;12.40;99277.00;;;;4895338;28;108759;-65
2023/10/25 04:04:11;;;;;;;7.80;4.70;;;12.40;99.90;12.40;99281.00;;;;4892371;28;109755;-66
2023/10/25 04:06:37;;;;;;;6.17;3.77;;;12.40;99.90;12.40;99276.00;;;;4895235;28;88817;-65
2023/10/25 04:09:03;;;;;;;6.83;4.10;;;12.40;99.90;12.40;99284.00;;;;4897149;28;95190;-65
2023/10/25 04:11:29;;;;;;;4.67;4.03;;;12.40;99.90;12.30;99290.00;;;;4896719;28;99857;-65
2023/10/25 04:13:55;;;;;;;7.67;4.23;;;12.40;99.90;12.30;99282.00;;;;4894825;28;116170;-65
2023/10/25 04:16:20;;;;;;;5.80;3.33;;;12.40;99.90;12.30;99277.00;;;;4890645;28;88568;-66
2023/10/25 04:18:46;;;;;;;5.97;3.93;;;12.40;99.90;12.30;99271.00;;;;4889632;28;101370;-66
2023/10/25 04:21:13;;;;;;;5.07;3.73;;;12.30;99.90;12.20;99271.00;;;;4893479;28;88059;-66
2023/10/25 04:23:39;;;;;;;5.77;3.87;;;12.30;99.90;12.20;99277.00;;;;4897575;28;88454;-65
2023/10/25 04:26:14;;;;;;;5.40;4.23;;;12.30;99.90;12.10;99279.00;;;;4877008;28;88932;-65
2023/10/25 04:28:42;;;;;;;6.27;4.03;;;12.20;99.90;12.10;99279.00;;;;4894931;28;87919;-65
2023/10/25 04:31:11;;;;;;;6.13;4.10;;;12.10;99.90;12.10;99277.00;;;;4895254;28;87944;-65
2023/10/25 04:33:37;;;;;;;6.03;4.20;;;12.10;99.90;12.00;99274.00;;;;4894084;28;90001;-64
2023/10/25 04:36:04;;;;;;;5.73;5.00;;;12.10;99.90;12.00;99268.00;;;;4894703;28;89780;-66
2023/10/25 04:38:31;;;;;;;6.80;4.10;;;12.00;99.90;11.90;99272.00;;;;4892915;28;88014;-65
2023/10/25 04:40:57;;;;;;;6.40;4.40;;;12.00;99.90;11.90;99274.00;;;;4893779;28;87395;-65
2023/10/25 04:43:23;;;;;;;7.20;5.27;;;11.60;99.90;11.80;99279.00;;;;4897387;28;88578;-65
2023/10/25 04:45:49;;;;;;;5.80;4.83;;;11.90;99.90;11.70;99273.00;;;;4891501;28;108102;-65
2023/10/25 04:48:14;;;;;;;7.70;4.27;;;11.80;99.90;11.70;99265.00;;;;4892714;28;88948;-65
2023/10/25 04:50:40;;;;;;;5.93;4.93;;;11.70;99.90;11.60;99270.00;;;;4893993;28;108857;-65
2023/10/25 04:53:12;;;;;;;6.93;5.23;;;11.70;99.90;11.50;99256.00;;;;4888444;28;105092;-64
2023/10/25 04:55:37;;;;;;;5.13;4.63;;;11.60;99.90;11.40;99265.00;;;;4894359;28;117447;-65
2023/10/25 04:58:04;;;;;;;7.77;5.83;;;11.50;99.90;11.30;99261.00;;;;4894529;28;110894;-65
2023/10/25 05:00:31;;;;;;;7.07;5.67;;;11.40;99.90;11.30;99264.00;;;;4890705;28;108621;-65
2023/10/25 05:02:57;;;;;;;4.97;3.80;;;11.30;99.90;11.20;99259.00;;;;4897291;28;87668;-65
2023/10/25 05:05:23;;;;;;;6.77;4.40;;;11.30;99.90;11.10;99266.00;;;;4876246;28;115161;-64
2023/10/25 05:07:51;;;;;;;8.70;5.73;;;11.20;99.90;11.10;99258.00;;;;4892634;28;108061;-64
2023/10/25 05:10:17;;;;;;;9.00;5.70;;;11.20;99.90;11.00;99276.00;;;;4897682;28;87637;-65
2023/10/25 05:12:45;;;;;;;7.33;5.50;;;11.10;99.90;10.90;99266.00;;;;4895021;28;88363;-65
2023/10/25 05:15:17;;;;;;;6.37;5.53;;;11.00;99.90;10.80;99266.00;;;;4891668;28;88028;-64
2023/10/25 05:17:45;;;;;;;10.20;6.17;;;10.90;99.90;10.70;99268.00;;;;4891681;28;87933;-64
2023/10/25 05:20:12;;;;;;;8.97;6.07;;;10.80;99.90;10.70;99275.00;;;;4888798;28;97727;-64
2023/10/25 05:22:41;;;;;;;8.23;6.90;;;10.70;99.90;10.60;99256.00;;;;4890604;28;89844;-64
2023/10/25 05:25:09;;;;;;;9.47;6.60;;;10.70;99.90;10.50;99258.00;;;;4893238;28;88564;-65
2023/10/25 05:27:36;;;;;;;7.07;6.00;;;10.60;99.90;10.50;99258.00;;;;4889453;28;103942;-64
2023/10/25 05:30:07;;;;;;;8.87;5.60;;;10.60;99.90;10.40;99265.00;;;;4892016;28;87840;-65
2023/10/25 05:32:35;;;;;;;9.27;6.63;;;10.50;99.90;10.40;99265.00;;;;4896942;28;87953;-64
2023/10/25 05:35:03;;;;;;;10.03;7.30;;;10.50;99.90;10.30;99267.00;;;;4890083;28;88628;-64
2023/10/25 05:37:30;;;;;;;7.70;5.87;;;10.40;99.90;10.30;99266.00;;;;4894387;28;103647;-64
2023/10/25 05:39:56;;;;;;;7.23;5.07;;;10.40;99.90;10.30;99258.00;;;;4895951;28;101571;-64
2023/10/25 05:42:26;;;;;;;7.00;5.70;;;10.40;99.90;10.30;99265.00;;;;4876542;28;108459;-64
2023/10/25 05:44:56;;;;;;;9.07;7.47;;;10.40;99.90;10.30;99272.00;;;;4891119;28;87882;-64
2023/10/25 05:47:23;;;;;;;8.83;5.77;;;10.40;99.90;10.30;99275.00;;;;4884075;28;88961;-64
2023/10/25 05:49:49;;;;;;;8.23;6.07;;;10.30;99.90;10.20;99270.00;;;;4884972;28;87476;-65
2023/10/25 05:52:16;;;;;;;6.47;5.40;;;10.30;99.90;10.20;99270.00;;;;4887855;28;88459;-64
2023/10/25 05:54:42;;;;;;;7.53;5.20;;;10.30;99.90;10.20;99279.00;;;;4887912;28;110169;-64
2023/10/25 05:57:08;;;;;;;7.00;5.30;;;10.70;99.90;10.20;99287.00;;;;4887317;28;87529;-64
2023/10/25 05:59:34;;;;;;;6.90;5.67;;;10.20;99.90;10.10;99292.00;;;;4888629;28;88337;-65
2023/10/25 06:02:11;;;;;;;10.70;6.37;;;10.20;99.90;10.10;99291.00;;;;4888768;28;96066;-65
2023/10/25 06:04:42;;;;;;;6.97;4.53;;;10.50;99.90;10.10;99285.00;;;;4870467;28;90058;-64
2023/10/25 06:07:10;;;;;;;8.30;7.07;;;10.10;99.90;10.10;99287.00;;;;4890532;28;87697;-64
2023/10/25 06:09:38;;;;;;;14.30;9.83;;;10.20;99.90;10.10;99289.00;;;;4889628;28;87741;-64
2023/10/25 06:12:05;;;;;;;6.23;5.33;;;10.20;99.90;10.10;99284.00;;;;4884639;28;89263;-64
2023/10/25 06:14:31;;;;;;;7.53;5.57;;;10.10;99.90;10.10;99283.00;;;;4888027;28;88751;-64
2023/10/25 06:17:00;;;;;;;7.87;5.13;;;10.20;99.90;10.10;99284.00;;;;4864782;28;87957;-64
2023/10/25 06:19:27;;;;;;;6.43;4.97;;;10.20;99.90;10.10;99288.00;;;;4868991;28;87913;-64
2023/10/25 06:21:54;;;;;;;12.03;6.50;;;10.10;99.90;10.10;99306.00;;;;4843515;28;87575;-64
2023/10/25 06:24:20;;;;;;;6.73;5.00;;;10.10;99.90;10.10;99305.00;;;;4866549;28;88189;-64
2023/10/25 06:26:46;;;;;;;11.90;6.50;;;10.10;99.90;10.10;99296.00;;;;4874851;28;89039;-65
2023/10/25 06:29:12;;;;;;;7.47;5.13;;;10.20;99.90;10.10;99294.00;;;;4869416;28;106385;-65
2023/10/25 06:31:37;;;;;;;7.73;6.10;;;10.20;99.90;10.20;99305.00;;;;4865638;28;89684;-65
2023/10/25 06:34:03;;;;;;;8.13;6.50;;;10.30;99.90;10.20;99296.00;;;;4871843;28;87929;-64
2023/10/25 06:36:32;;;;;;;7.90;5.57;;;10.30;99.90;10.20;99300.00;;;;4867579;28;97322;-63
2023/10/25 06:39:04;;;;;;;8.97;6.33;;;10.30;99.90;10.20;99290.00;;;;4865972;28;103129;-64
2023/10/25 06:41:30;;;;;;;6.97;5.47;;;10.30;99.90;10.30;99287.00;;;;4870991;28;88152;-64
2023/10/25 06:43:56;;;;;;;9.43;5.70;;;10.30;99.90;10.30;99287.00;;;;4871066;28;91523;-64
2023/10/25 06:46:22;;;;;;;9.53;7.00;;;10.30;99.90;10.30;99285.00;;;;4859784;28;87936;-66
2023/10/25 06:48:48;;;;;;;9.63;6.30;;;10.40;99.90;10.30;99282.00;;;;4873376;28;87934;-65
2023/10/25 06:51:15;;;;;;;9.13;6.33;;;10.40;99.90;10.40;99284.00;;;;4857446;28;103012;-64
2023/10/25 06:53:42;;;;;;;8.50;6.87;;;10.40;99.90;10.40;99292.00;;;;4886372;28;87445;-65
2023/10/25 06:56:08;;;;;;;6.63;5.33;;;10.40;99.90;10.40;99299.00;;;;4876475;28;88228;-64
2023/10/25 06:58:34;;;;;;;6.57;5.03;;;10.50;99.90;10.50;99293.00;;;;4872946;28;88378;-65
2023/10/25 07:01:01;;;;;;;9.00;6.13;;;10.50;99.90;10.50;99307.00;;;;4870467;28;97218;-64
2023/10/25 07:03:34;;;;;;;6.47;5.07;;;10.50;99.90;10.50;99306.00;;;;4870560;28;118698;-64
2023/10/25 07:06:03;;;;;;;8.97;6.43;;;10.60;99.90;10.60;99314.00;;;;4870315;28;87810;-64
2023/10/25 07:08:32;;;;;;;5.73;4.63;;;10.60;99.90;10.60;99308.00;;;;4870511;28;88224;-64
2023/10/25 07:10:58;;;;;;;7.57;5.57;;;10.70;99.90;10.70;99304.00;;;;4860237;28;90699;-64
2023/10/25 07:13:24;;;;;;;10.90;6.13;;;10.70;99.90;10.70;99292.00;;;;4872599;28;88487;-64
2023/10/25 07:15:51;;;;;;;8.40;6.53;;;10.70;99.90;10.80;99306.00;;;;4869631;28;87658;-64
2023/10/25 07:18:17;;;;;;;7.77;6.53;;;10.80;99.90;10.80;99318.00;;;;4848176;28;87140;-64
2023/10/25 07:20:42;;;;;;;8.37;6.67;;;10.80;99.90;10.80;99317.00;;;;4855682;28;88808;-66
2023/10/25 07:23:08;;;;;;;8.77;5.80;;;10.80;99.90;10.90;99322.00;;;;4853987;28;116202;-65
2023/10/25 07:25:34;;;;;;;9.47;7.03;;;10.90;99.90;10.90;99323.00;;;;4857880;28;88745;-65
2023/10/25 07:28:00;;;;;;;8.00;6.80;;;11.00;99.90;10.90;99327.00;;;;4853206;28;87750;-65
2023/10/25 07:30:26;;;;;;;8.27;6.47;;;10.90;99.90;11.00;99327.00;;;;4856838;28;87698;-65
2023/10/25 07:32:52;;;;;;;9.60;7.10;;;11.00;99.90;11.00;99333.00;;;;4853913;28;89050;-65
2023/10/25 07:35:17;;;;;;;11.83;6.90;;;11.10;99.90;11.10;99327.00;;;;4853687;28;111121;-65
2023/10/25 07:37:43;;;;;;;13.77;7.53;;;11.10;99.90;11.10;99333.00;;;;4851851;28;108729;-65
2023/10/25 07:40:09;;;;;;;11.10;7.80;;;11.10;99.90;11.10;99336.00;;;;4853082;28;115058;-66
2023/10/25 07:42:35;;;;;;;11.07;7.60;;;11.20;99.90;11.10;99325.00;;;;4853589;28;87304;-65
2023/10/25 07:45:01;;;;;;;11.47;7.77;;;12.00;99.90;11.10;99326.00;;;;4852102;28;106850;-65
2023/10/25 07:47:27;;;;;;;8.67;6.43;;;11.20;99.90;11.20;99346.00;;;;4855694;28;87588;-65
2023/10/25 07:49:52;;;;;;;11.03;8.37;;;11.20;99.90;11.20;99340.00;;;;4857385;28;89631;-67
2023/10/25 07:52:18;;;;;;;7.63;6.90;;;12.50;99.90;11.20;99332.00;;;;4867983;28;116044;-66
2023/10/25 07:54:44;;;;;;;10.87;6.77;;;11.80;99.90;11.20;99333.00;;;;4851388;28;109771;-66
2023/10/25 07:57:09;;;;;;;7.90;6.13;;;11.20;99.90;11.30;99336.00;;;;4850474;28;87842;-66
2023/10/25 07:59:36;;;;;;;9.37;6.00;;;11.30;99.90;11.40;99341.00;;;;4852178;28;118875;-66
2023/10/25 08:02:02;;;;;;;13.00;8.63;;;11.40;99.90;11.40;99346.00;;;;4855490;28;87699;-66
2023/10/25 08:04:28;;;;;;;10.33;7.60;;;11.40;99.90;11.40;99330.00;;;;4852940;28;87464;-66
2023/10/25 08:06:53;;;;;;;12.03;7.63;;;11.40;99.90;11.50;99333.00;;;;4853495;28;87496;-65
2023/10/25 08:09:20;;;;;;;8.73;6.07;;;11.50;99.90;11.50;99326.00;;;;4852561;28;117261;-65
2023/10/25 08:11:45;;;;;;;10.83;7.17;;;11.50;99.90;11.60;99324.00;;;;4851675;28;96121;-65
2023/10/25 08:14:11;;;;;;;9.23;6.60;;;11.60;99.90;11.60;99327.00;;;;4851972;28;96284;-65
2023/10/25 08:16:40;;;;;;;9.93;6.07;;;11.60;99.90;11.70;99326.00;;;;4854888;28;109016;-64
2023/10/25 08:19:07;;;;;;;8.30;6.90;;;11.20;99.90;11.80;99325.00;;;;4865411;28;87963;-65
2023/10/25 08:21:33;;;;;;;10.33;7.23;;;11.70;99.90;11.90;99314.00;;;;4852511;28;105448;-64
2023/10/25 08:23:59;;;;;;;7.20;5.63;;;11.90;99.90;12.00;99304.00;;;;4851081;28;87909;-63
2023/10/25 08:26:27;;;;;;;9.20;6.17;;;12.00;99.90;12.10;99309.00;;;;4853359;28;109050;-64
2023/10/25 08:28:53;;;;;;;8.63;6.40;;;12.20;99.90;12.20;99314.00;;;;4855267;28;87767;-64
2023/10/25 08:31:19;;;;;;;7.30;5.87;;;12.20;99.90;12.20;99319.00;;;;4830531;28;119181;-65
2023/10/25 08:33:45;;;;;;;9.40;5.97;;;12.20;99.90;12.30;99315.00;;;;4850802;28;89287;-64
2023/10/25 08:36:11;;;;;;;8.77;5.87;;;12.30;99.90;12.30;99319.00;;;;4852298;28;87991;-64
2023/10/25 08:38:37;;;;;;;8.20;5.17;;;12.30;99.90;12.40;99320.00;;;;4848566;28;88796;-64
2023/10/25 08:41:07;;;;;;;12.20;6.77;;;12.40;99.90;12.60;99308.00;;;;4852814;28;89612;-64
2023/10/25 08:43:38;;;;;;;8.73;5.50;;;12.50;99.90;12.70;99307.00;;;;4852896;28;92070;-63
2023/10/25 08:46:05;;;;;;;5.53;4.60;;;12.70;99.90;12.80;99313.00;;;;4852428;28;87788;-63
2023/10/25 08:48:36;;;;;;;5.03;4.50;;;12.80;99.90;12.80;99316.00;;;;4851095;28;99529;-63
2023/10/25 08:51:03;;;;;;;5.77;4.63;;;13.10;99.90;12.80;99320.00;;;;4853867;28;115604;-64
2023/10/25 08:53:36;;;;;;;6.57;5.33;;;12.80;99.90;12.90;99324.00;;;;4856032;28;88038;-64
2023/10/25 08:56:03;;;;;;;6.43;4.70;;;12.80;99.90;12.90;99318.00;;;;4834558;28;87104;-63
2023/10/25 08:58:28;;;;;;;6.77;4.80;;;12.90;99.90;12.90;99325.00;;;;4852593;28;87839;-63
2023/10/25 09:00:55;;;;;;;6.37;5.07;;;12.90;99.90;12.90;99324.00;;;;4850416;28;115666;-64
2023/10/25 09:03:33;;;;;;;7.27;4.47;;;12.90;99.90;12.90;99317.00;;;;4852734;28;88833;-64
2023/10/25 09:06:04;;;;;;;6.97;5.17;;;13.20;99.90;13.00;99310.00;;;;4852422;28;88149;-62
2023/10/25 09:08:31;;;;;;;8.00;4.90;;;13.00;99.90;13.00;99316.00;;;;4852520;28;89144;-64
2023/10/25 09:11:03;;;;;;;5.60;4.17;;;13.00;99.90;13.40;99309.00;;;;4854939;28;107213;-65
2023/10/25 09:13:30;;;;;;;5.30;4.33;;;13.20;99.90;13.80;99313.00;;;;4860325;28;87609;-64
2023/10/25 09:16:16;;;;;;;5.50;4.50;;;13.60;99.90;14.20;99315.00;;;;4884716;28;87734;-64
2023/10/25 09:18:42;;;;;;;9.55;4.70;;;14.00;99.90;14.50;99327.00;;;;4859821;28;88373;-63
2023/10/25 09:21:10;;;;;;;3.87;3.33;;;14.30;99.90;14.60;99322.00;;;;4890012;28;87744;-63
2023/10/25 09:23:36;;;;;;;5.60;3.55;;;14.50;99.90;14.70;99326.00;;;;4859775;28;88378;-64
2023/10/25 09:26:13;;;;;;;4.70;3.63;;;14.60;99.90;14.70;99323.00;;;;4884550;28;88061;-63
2023/10/25 09:28:39;;;;;;;6.20;4.13;;;14.60;99.90;14.70;99332.00;;;;4886933;28;89995;-64
2023/10/25 09:31:24;;;;;;;5.32;4.25;;;14.70;99.90;14.50;99330.00;;;;4886266;28;117469;-64
2023/10/25 09:33:50;;;;;;;5.72;3.80;;;14.90;99.90;14.40;99330.00;;;;4887547;28;87796;-64
2023/10/25 09:36:19;;;;;;;4.50;3.65;;;14.40;99.90;14.20;99327.00;;;;4889687;28;88058;-64
2023/10/25 09:38:45;;;;;;;4.40;3.20;;;14.30;99.90;14.10;99324.00;;;;4886763;28;87885;-62
2023/10/25 09:41:17;;;;;;;5.05;3.15;;;14.20;99.90;14.00;99321.00;;;;4857120;28;108986;-64
2023/10/25 09:43:49;;;;;;;6.18;3.25;;;14.50;99.90;13.90;99324.00;;;;4870077;28;89182;-64
2023/10/25 09:46:18;;;;;;;5.70;3.58;;;13.90;99.90;13.80;99320.00;;;;4890300;28;86907;-63
2023/10/25 09:49:03;;;;;;;5.22;4.40;;;13.80;99.90;13.70;99324.00;;;;4889559;28;88382;-64
2023/10/25 09:51:47;;;;;;;4.43;4.03;;;13.70;99.90;14.00;99311.00;;;;4892611;28;88422;-64
2023/10/25 09:54:16;;;;;;;3.85;3.42;;;13.90;99.90;14.30;99311.00;;;;4890952;28;88983;-64
2023/10/25 09:56:43;;;;;;;5.00;3.05;;;14.20;99.90;14.70;99312.00;;;;4874562;28;87724;-65
2023/10/25 09:59:10;;;;;;;4.38;2.97;;;14.50;99.90;15.20;99315.00;;;;4861377;28;117488;-65
2023/10/25 10:01:38;;;;;;;3.45;3.10;;;14.90;99.90;15.80;99316.00;;;;4890798;28;88449;-65
2023/10/25 10:04:10;;;;;;;3.22;2.83;;;15.50;99.90;16.30;99307.00;;;;4892133;28;88080;-65
2023/10/25 10:07:13;;;;;;;4.00;3.00;;;16.00;99.90;16.50;99311.00;;;;4887927;28;87548;-65
2023/10/25 10:09:52;;;;;;;4.82;3.55;;;16.30;99.90;16.50;99293.00;;;;4888251;28;87599;-66
2023/10/25 10:12:19;;;;;;;3.30;2.30;;;16.40;99.90;16.50;99290.00;;;;4871002;28;88281;-65
2023/10/25 10:14:45;;;;;;;5.15;2.97;;;16.40;99.90;16.50;99290.00;;;;4890984;28;87740;-66
2023/10/25 10:17:17;;;;;;;3.28;2.58;;;16.40;99.90;16.60;99306.00;;;;4888161;28;88723;-65
2023/10/25 10:19:45;;;;;;;4.63;3.03;;;16.50;99.90;17.00;99295.00;;;;4890954;28;89689;-66
2023/10/25 10:22:13;;;;;;;3.85;3.00;;;16.70;99.90;17.60;99295.00;;;;4872785;28;108902;-66
2023/10/25 10:24:42;;;;;;;4.75;2.97;;;17.20;99.90;18.20;99310.00;;;;4892716;28;87927;-65
2023/10/25 10:27:13;;;;;;;4.80;2.78;;;17.70;99.90;18.50;99292.00;;;;4889911;28;88060;-67
2023/10/25 10:29:44;;;;;;;3.83;2.95;;;18.10;99.90;18.60;99299.00;;;;4890636;28;87759;-67
2023/10/25 10:32:11;;;;;;;3.42;3.13;;;18.30;99.90;18.50;99295.00;;;;4890009;28;88480;-65
2023/10/25 10:34:49;;;;;;;2.63;2.42;;;18.30;99.90;18.30;99289.00;;;;4890699;28;88027;-65
2023/10/25 10:37:22;;;;;;;4.28;2.10;;;18.20;99.90;18.20;99288.00;;;;4867258;28;87304;-66
2023/10/25 10:40:03;;;;;;;4.13;2.80;;;18.00;99.90;18.20;99283.00;;;;4876845;28;88007;-66
2023/10/25 10:42:28;;;;;;;3.15;2.33;;;18.10;99.90;18.40;99276.00;;;;4891573;28;106665;-66
2023/10/25 10:44:58;;;;;;;3.47;3.03;;;18.20;99.90;18.50;99279.00;;;;4891414;28;88475;-65
2023/10/25 10:48:13;;;;;;;3.25;2.10;;;18.30;99.90;18.50;99280.00;;;;4868197;28;88084;-65
2023/10/25 10:50:40;;;;;;;4.95;2.53;;;18.30;99.90;18.80;99274.00;;;;4887779;28;88777;-65